createdAt,value
2023-03-16T00:02:10.303Z,75.18
2023-03-16T00:04:38.290Z,74.75
2023-03-16T00:07:07.040Z,75.46
2023-03-16T00:09:34.126Z,76.34
2023-03-16T00:12:04.738Z,75.31
2023-03-16T00:14:32.646Z,77.07
2023-03-16T00:16:59.667Z,78.41
2023-03-16T00:19:26.495Z,80.50
2023-03-16T00:21:53.699Z,82.27
2023-03-16T00:24:20.646Z,82.65
2023-03-16T00:26:48.552Z,83.05
2023-03-16T00:29:15.439Z,82.63
2023-03-16T00:31:45.561Z,79.10
2023-03-16T00:34:12.667Z,78.94
2023-03-16T00:36:39.527Z,78.79
2023-03-16T00:39:07.078Z,80.51
2023-03-16T00:41:38.186Z,81.77
2023-03-16T00:44:06.465Z,83.34
2023-03-16T00:46:34.435Z,84.66
2023-03-16T00:49:02.906Z,85.24
2023-03-16T00:51:33.751Z,86.58
2023-03-16T00:54:00.521Z,87.80
2023-03-16T00:56:27.342Z,88.93
2023-03-16T00:58:57.940Z,88.76
2023-03-16T01:01:25.270Z,89.23
2023-03-16T01:03:52.125Z,90.28
2023-03-16T01:06:20.786Z,92.17
2023-03-16T01:08:48.145Z,92.37
2023-03-16T01:11:18.643Z,93.26
2023-03-16T01:13:49.850Z,95.73
2023-03-16T01:16:19.186Z,97.67
2023-03-16T01:18:49.937Z,97.88
2023-03-16T01:21:16.814Z,99.83
2023-03-16T01:23:44.458Z,100.00
2023-03-16T01:26:12.656Z,100.00
2023-03-16T01:28:39.456Z,100.00
2023-03-16T01:31:10.425Z,100.00
2023-03-16T01:33:38.106Z,100.00
2023-03-16T01:36:15.220Z,98.60
2023-03-16T01:38:51.580Z,100.00
2023-03-16T01:41:18.828Z,99.22
2023-03-16T01:43:46.302Z,97.96
2023-03-16T01:46:18.471Z,100.00
2023-03-16T01:49:01.588Z,100.00
2023-03-16T01:51:42.242Z,100.00
2023-03-16T01:54:22.100Z,100.00
2023-03-16T01:57:07.049Z,100.00
2023-03-16T01:59:40.194Z,100.00
2023-03-16T02:02:09.184Z,100.00
2023-03-16T02:04:37.160Z,100.00
2023-03-16T02:07:07.910Z,100.00
2023-03-16T02:09:46.619Z,100.00
2023-03-16T02:12:18.127Z,100.00
2023-03-16T02:14:50.485Z,100.00
2023-03-16T02:17:21.704Z,100.00
2023-03-16T02:20:16.802Z,100.00
2023-03-16T02:22:48.995Z,100.00
2023-03-16T02:25:18.830Z,100.00
2023-03-16T02:28:00.952Z,100.00
2023-03-16T02:30:28.587Z,100.00
2023-03-16T02:32:59.516Z,100.00
2023-03-16T02:35:26.478Z,100.00
2023-03-16T02:37:53.597Z,100.00
2023-03-16T02:40:43.953Z,100.00
2023-03-16T02:43:16.925Z,100.00
2023-03-16T02:45:53.725Z,100.00
2023-03-16T02:48:37.450Z,100.00
2023-03-16T02:51:06.546Z,100.00
2023-03-16T02:53:33.410Z,100.00
2023-03-16T02:56:03.028Z,100.00
2023-03-16T02:58:32.851Z,100.00
2023-03-16T03:01:02.134Z,100.00
2023-03-16T03:03:29.253Z,100.00
2023-03-16T03:05:56.242Z,100.00
2023-03-16T03:08:23.670Z,100.00
2023-03-16T03:10:51.520Z,100.00
2023-03-16T03:13:19.020Z,100.00
2023-03-16T03:15:45.857Z,100.00
2023-03-16T03:18:14.712Z,100.00
2023-03-16T03:20:41.760Z,99.65
2023-03-16T03:23:10.186Z,100.00
2023-03-16T03:25:37.010Z,100.00
2023-03-16T03:28:08.494Z,100.00
2023-03-16T03:30:35.879Z,100.00
2023-03-16T03:33:03.877Z,100.00
2023-03-16T03:35:31.839Z,100.00
2023-03-16T03:37:58.939Z,100.00
2023-03-16T03:40:26.670Z,100.00
2023-03-16T03:42:58.351Z,100.00
2023-03-16T03:45:25.709Z,100.00
2023-03-16T03:47:52.503Z,100.00
2023-03-16T03:50:21.577Z,100.00
2023-03-16T03:53:08.700Z,100.00
2023-03-16T03:55:49.960Z,100.00
2023-03-16T03:58:16.863Z,100.00
2023-03-16T04:00:43.896Z,100.00
2023-03-16T04:03:10.937Z,100.00
2023-03-16T04:05:43.757Z,100.00
2023-03-16T04:08:11.837Z,100.00
2023-03-16T04:10:39.393Z,100.00
2023-03-16T04:13:06.302Z,100.00
2023-03-16T04:15:35.326Z,100.00
2023-03-16T04:18:08.701Z,100.00
2023-03-16T04:20:36.491Z,100.00
2023-03-16T04:23:03.508Z,100.00
2023-03-16T04:25:31.525Z,100.00
2023-03-16T04:27:59.197Z,100.00
2023-03-16T04:30:31.068Z,100.00
2023-03-16T04:33:09.972Z,100.00
2023-03-16T04:35:36.918Z,100.00
2023-03-16T04:38:03.721Z,100.00
2023-03-16T04:40:39.507Z,100.00
2023-03-16T04:43:13.729Z,100.00
2023-03-16T04:45:42.188Z,100.00
2023-03-16T04:48:10.289Z,100.00
2023-03-16T04:50:37.978Z,100.00
2023-03-16T04:53:05.200Z,100.00
2023-03-16T04:55:32.908Z,100.00
2023-03-16T04:58:00.111Z,100.00
2023-03-16T05:00:32.188Z,100.00
2023-03-16T05:03:04.498Z,100.00
2023-03-16T05:05:31.638Z,100.00
2023-03-16T05:07:58.537Z,100.00
2023-03-16T05:10:28.291Z,100.00
2023-03-16T05:12:56.229Z,100.00
2023-03-16T05:15:23.207Z,100.00
2023-03-16T05:17:59.591Z,100.00
2023-03-16T05:20:26.392Z,100.00
2023-03-16T05:22:57.401Z,100.00
2023-03-16T05:25:27.716Z,100.00
2023-03-16T05:27:57.702Z,100.00
2023-03-16T05:30:45.385Z,100.00
2023-03-16T05:33:16.638Z,100.00
2023-03-16T05:35:46.800Z,100.00
2023-03-16T05:38:15.927Z,100.00
2023-03-16T05:40:44.076Z,100.00
2023-03-16T05:43:20.524Z,100.00
2023-03-16T05:45:50.556Z,100.00
2023-03-16T05:48:18.759Z,100.00
2023-03-16T05:50:50.925Z,100.00
2023-03-16T05:53:21.102Z,100.00
2023-03-16T05:55:53.820Z,100.00
2023-03-16T05:58:21.423Z,100.00
2023-03-16T06:00:50.562Z,100.00
2023-03-16T06:03:28.609Z,100.00
2023-03-16T06:05:57.725Z,100.00
2023-03-16T06:08:30.474Z,100.00
2023-03-16T06:11:05.944Z,100.00
2023-03-16T06:13:32.864Z,100.00
2023-03-16T06:15:59.868Z,100.00
2023-03-16T06:18:27.259Z,100.00
2023-03-16T06:20:54.062Z,100.00
2023-03-16T06:23:21.951Z,100.00
2023-03-16T06:25:50.624Z,100.00
2023-03-16T06:28:21.288Z,100.00
2023-03-16T06:30:48.239Z,100.00
2023-03-16T06:33:15.013Z,100.00
2023-03-16T06:35:41.997Z,100.00
2023-03-16T06:38:18.536Z,100.00
2023-03-16T06:41:08.349Z,97.57
2023-03-16T06:43:36.042Z,95.49
2023-03-16T06:46:03.752Z,94.25
2023-03-16T06:48:30.810Z,88.63
2023-03-16T06:50:57.948Z,83.94
2023-03-16T06:53:27.748Z,82.28
2023-03-16T06:55:56.103Z,81.15
2023-03-16T06:58:26.146Z,77.63
2023-03-16T07:00:54.153Z,71.47
2023-03-16T07:03:21.765Z,72.52
2023-03-16T07:05:54.757Z,68.56
2023-03-16T07:08:21.958Z,68.19
2023-03-16T07:10:50.919Z,67.03
2023-03-16T07:13:18.267Z,68.90
2023-03-16T07:15:45.203Z,67.66
2023-03-16T07:18:14.878Z,67.59
2023-03-16T07:20:42.500Z,67.71
2023-03-16T07:23:09.321Z,68.60
2023-03-16T07:25:36.137Z,66.37
2023-03-16T07:28:04.345Z,63.77
2023-03-16T07:30:36.924Z,64.90
2023-03-16T07:33:05.585Z,64.52
2023-03-16T07:35:33.454Z,63.53
2023-03-16T07:38:01.637Z,62.04
2023-03-16T07:40:28.828Z,63.68
2023-03-16T07:43:04.414Z,62.80
2023-03-16T07:45:36.085Z,62.09
2023-03-16T07:48:04.250Z,62.26
2023-03-16T07:50:39.196Z,60.48
2023-03-16T07:53:06.291Z,62.17
2023-03-16T07:55:39.534Z,61.27
2023-03-16T07:58:08.161Z,59.75
2023-03-16T08:00:39.172Z,58.76
2023-03-16T08:03:06.436Z,57.20
2023-03-16T08:05:35.353Z,55.92
2023-03-16T08:08:09.775Z,56.11
2023-03-16T08:10:39.292Z,55.35
2023-03-16T08:13:16.001Z,54.46
2023-03-16T08:16:02.447Z,55.93
2023-03-16T08:18:35.488Z,54.99
2023-03-16T08:21:03.334Z,53.43
2023-03-16T08:23:33.742Z,52.71
2023-03-16T08:26:01.757Z,52.23
2023-03-16T08:28:28.974Z,51.50
2023-03-16T08:30:58.705Z,51.32
2023-03-16T08:33:46.950Z,49.83
2023-03-16T08:36:17.343Z,50.98
2023-03-16T08:39:00.068Z,50.79
2023-03-16T08:41:30.936Z,51.52
2023-03-16T08:44:03.427Z,50.78
2023-03-16T08:46:31.074Z,50.57
2023-03-16T08:48:59.460Z,49.74
2023-03-16T08:51:27.524Z,49.29
2023-03-16T08:53:54.684Z,48.43
2023-03-16T08:56:21.798Z,47.83
2023-03-16T08:58:52.356Z,48.57
2023-03-16T09:01:19.828Z,47.34
2023-03-16T09:03:51.502Z,46.20
2023-03-16T09:06:18.897Z,46.59
2023-03-16T09:08:46.260Z,46.78
2023-03-16T09:11:16.055Z,45.69
2023-03-16T09:13:47.522Z,46.38
2023-03-16T09:16:16.367Z,46.94
2023-03-16T09:18:44.136Z,46.73
2023-03-16T09:21:13.988Z,46.38
2023-03-16T09:23:43.052Z,45.71
2023-03-16T09:26:12.666Z,45.62
2023-03-16T09:28:42.333Z,45.17
2023-03-16T09:31:15.580Z,45.11
2023-03-16T09:33:42.953Z,43.75
2023-03-16T09:36:11.676Z,43.35
2023-03-16T09:38:38.757Z,43.11
2023-03-16T09:41:18.505Z,43.08
2023-03-16T09:44:10.706Z,44.18
2023-03-16T09:46:43.767Z,43.61
2023-03-16T09:49:14.272Z,42.13
2023-03-16T09:52:06.384Z,40.51
2023-03-16T09:54:43.127Z,41.76
2023-03-16T09:57:26.160Z,42.57
2023-03-16T09:59:53.425Z,39.77
2023-03-16T10:02:23.248Z,39.30
2023-03-16T10:04:58.726Z,38.60
2023-03-16T10:08:14.271Z,40.23
2023-03-16T10:11:05.632Z,40.61
2023-03-16T10:13:51.587Z,39.37
2023-03-16T10:16:20.635Z,39.27
2023-03-16T10:18:52.486Z,39.34
2023-03-16T10:21:21.236Z,38.41
2023-03-16T10:23:49.530Z,38.13
2023-03-16T10:26:24.074Z,38.71
2023-03-16T10:28:51.364Z,38.02
2023-03-16T10:31:21.855Z,39.68
2023-03-16T10:33:53.488Z,38.95
2023-03-16T10:36:34.740Z,39.86
2023-03-16T10:39:09.406Z,39.09
2023-03-16T10:41:43.418Z,39.00
2023-03-16T10:44:15.798Z,39.36
2023-03-16T10:47:00.708Z,38.92
2023-03-16T10:49:39.563Z,39.08
2023-03-16T10:52:34.861Z,39.73
2023-03-16T10:55:11.197Z,39.37
2023-03-16T10:57:42.759Z,39.79
2023-03-16T11:00:21.442Z,39.67
2023-03-16T11:02:49.846Z,39.07
2023-03-16T11:05:19.304Z,39.93
2023-03-16T11:08:10.821Z,39.05
2023-03-16T11:10:54.681Z,39.46
2023-03-16T11:13:26.453Z,36.42
2023-03-16T11:16:00.625Z,35.76
2023-03-16T11:18:32.529Z,37.39
2023-03-16T11:21:39.931Z,37.69
2023-03-16T11:24:19.313Z,37.90
2023-03-16T11:26:54.398Z,37.32
2023-03-16T11:29:32.975Z,36.12
2023-03-16T11:32:29.576Z,36.54
2023-03-16T11:34:56.672Z,34.66
2023-03-16T11:37:29.286Z,35.13
2023-03-16T11:40:17.723Z,34.56
2023-03-16T11:43:03.637Z,34.35
2023-03-16T11:46:05.583Z,35.64
2023-03-16T11:48:46.459Z,34.44
2023-03-16T11:51:38.818Z,34.92
2023-03-16T11:54:31.467Z,35.04
2023-03-16T11:57:05.683Z,34.41
2023-03-16T11:59:32.649Z,35.52
2023-03-16T12:02:16.318Z,34.96
2023-03-16T12:05:18.183Z,35.68
2023-03-16T12:08:04.599Z,35.56
2023-03-16T12:10:42.008Z,34.23
2023-03-16T12:13:36.145Z,33.23
2023-03-16T12:16:11.053Z,34.02
2023-03-16T12:19:07.103Z,34.82
2023-03-16T12:21:39.865Z,35.31
2023-03-16T12:24:18.746Z,34.45
2023-03-16T12:26:46.337Z,35.11
2023-03-16T12:29:21.209Z,35.14
2023-03-16T12:31:59.362Z,36.26
2023-03-16T12:34:32.947Z,37.12
2023-03-16T12:37:36.589Z,35.83
2023-03-16T12:40:15.874Z,35.16
2023-03-16T12:43:18.670Z,35.16
2023-03-16T12:45:57.782Z,34.64
2023-03-16T12:48:45.229Z,34.99
2023-03-16T12:51:14.424Z,33.83
2023-03-16T12:53:55.104Z,34.97
2023-03-16T12:56:37.573Z,33.42
2023-03-16T12:59:07.760Z,33.82
2023-03-16T13:01:38.542Z,33.08
2023-03-16T13:04:16.375Z,33.22
2023-03-16T13:06:47.632Z,32.29
2023-03-16T13:09:20.270Z,31.86
2023-03-16T13:11:53.491Z,32.05
2023-03-16T13:14:40.754Z,32.20
2023-03-16T13:17:28.040Z,32.86
2023-03-16T13:20:30.281Z,32.37
2023-03-16T13:23:30.695Z,32.30
2023-03-16T13:26:00.416Z,31.06
2023-03-16T13:28:31.799Z,30.88
2023-03-16T13:31:00.466Z,31.41
2023-03-16T13:33:31.554Z,31.54
2023-03-16T13:36:00.579Z,31.48
2023-03-16T13:38:31.536Z,30.49
2023-03-16T13:41:10.418Z,30.11
2023-03-16T13:43:44.432Z,29.42
2023-03-16T13:46:19.522Z,29.06
2023-03-16T13:48:50.524Z,29.93
2023-03-16T13:51:23.046Z,30.50
2023-03-16T13:53:51.096Z,31.24
2023-03-16T13:56:40.501Z,30.55
2023-03-16T13:59:10.729Z,31.20
2023-03-16T14:01:37.930Z,31.06
2023-03-16T14:04:14.327Z,31.33
2023-03-16T14:06:43.979Z,30.89
2023-03-16T14:09:18.228Z,31.09
2023-03-16T14:11:48.743Z,29.92
2023-03-16T14:14:17.280Z,29.84
2023-03-16T14:16:44.790Z,29.89
2023-03-16T14:19:14.266Z,30.53
2023-03-16T14:21:45.974Z,30.56
2023-03-16T14:24:31.014Z,30.58
2023-03-16T14:27:08.947Z,30.46
2023-03-16T14:29:35.864Z,28.73
2023-03-16T14:32:03.413Z,29.18
2023-03-16T14:34:41.436Z,29.40
2023-03-16T14:37:13.855Z,29.42
2023-03-16T14:39:41.426Z,28.83
2023-03-16T14:42:19.046Z,29.22
2023-03-16T14:44:46.646Z,28.93
2023-03-16T14:47:25.552Z,29.06
2023-03-16T14:49:53.480Z,29.07
2023-03-16T14:52:27.417Z,29.76
2023-03-16T14:54:55.477Z,28.73
2023-03-16T14:57:22.936Z,28.85
2023-03-16T14:59:49.880Z,28.95
2023-03-16T15:02:30.827Z,29.22
2023-03-16T15:04:59.533Z,28.76
2023-03-16T15:07:33.776Z,29.50
2023-03-16T15:10:07.460Z,29.44
2023-03-16T15:12:38.083Z,29.31
2023-03-16T15:15:20.167Z,28.87
2023-03-16T15:17:47.497Z,28.32
2023-03-16T15:20:36.051Z,27.92
2023-03-16T15:23:05.149Z,28.94
2023-03-16T15:25:40.000Z,30.05
2023-03-16T15:28:17.675Z,29.93
2023-03-16T15:30:49.780Z,29.76
2023-03-16T15:33:17.350Z,29.99
2023-03-16T15:35:47.005Z,30.68
2023-03-16T15:38:26.049Z,31.34
2023-03-16T15:40:53.635Z,30.25
2023-03-16T15:43:29.817Z,30.47
2023-03-16T15:46:03.712Z,30.23
2023-03-16T15:48:31.157Z,29.49
2023-03-16T15:51:07.769Z,30.11
2023-03-16T15:53:51.433Z,30.20
2023-03-16T15:56:22.809Z,30.00
2023-03-16T15:58:50.905Z,29.06
2023-03-16T16:01:25.894Z,29.21
2023-03-16T16:03:54.519Z,29.10
2023-03-16T16:06:22.373Z,29.41
2023-03-16T16:08:49.428Z,29.18
2023-03-16T16:11:19.355Z,28.48
2023-03-16T16:13:46.652Z,28.92
2023-03-16T16:16:15.618Z,28.76
2023-03-16T16:18:43.167Z,29.16
2023-03-16T16:21:19.746Z,29.76
2023-03-16T16:23:47.932Z,29.85
2023-03-16T16:26:26.297Z,29.01
2023-03-16T16:28:55.870Z,29.25
2023-03-16T16:31:23.813Z,29.26
2023-03-16T16:33:51.017Z,29.87
2023-03-16T16:36:21.076Z,28.18
2023-03-16T16:38:48.688Z,28.38
2023-03-16T16:41:24.576Z,28.74
2023-03-16T16:43:52.931Z,28.46
2023-03-16T16:46:28.832Z,28.98
2023-03-16T16:49:01.859Z,29.67
2023-03-16T16:51:30.753Z,29.50
2023-03-16T16:53:59.060Z,30.19
2023-03-16T16:56:32.127Z,30.17
2023-03-16T16:59:02.071Z,30.81
2023-03-16T17:01:34.742Z,31.75
2023-03-16T17:04:03.048Z,31.88
2023-03-16T17:06:30.615Z,32.51
2023-03-16T17:08:57.635Z,32.54
2023-03-16T17:11:27.649Z,32.42
2023-03-16T17:13:55.571Z,32.24
2023-03-16T17:16:28.885Z,32.52
2023-03-16T17:18:55.788Z,32.85
2023-03-16T17:21:25.302Z,33.13
2023-03-16T17:23:52.974Z,32.95
2023-03-16T17:26:31.770Z,33.72
2023-03-16T17:29:02.745Z,34.12
2023-03-16T17:31:35.256Z,33.59
2023-03-16T17:34:06.833Z,33.15
2023-03-16T17:36:33.825Z,33.38
2023-03-16T17:39:02.194Z,32.74
2023-03-16T17:41:33.106Z,32.92
2023-03-16T17:44:04.749Z,32.67
2023-03-16T17:46:31.895Z,32.83
2023-03-16T17:49:00.249Z,32.92
2023-03-16T17:51:27.393Z,33.32
2023-03-16T17:53:55.875Z,33.35
2023-03-16T17:56:25.717Z,34.50
2023-03-16T17:58:57.271Z,34.68
2023-03-16T18:01:32.713Z,33.99
2023-03-16T18:04:01.343Z,34.05
2023-03-16T18:06:29.902Z,34.07
2023-03-16T18:08:57.609Z,34.17
2023-03-16T18:11:35.794Z,33.55
2023-03-16T18:14:04.972Z,34.09
2023-03-16T18:16:32.331Z,34.18
2023-03-16T18:19:04.253Z,35.07
2023-03-16T18:21:31.574Z,34.90
2023-03-16T18:27:21.195Z,35.12
2023-03-16T18:34:00.012Z,36.06
2023-03-16T18:37:11.051Z,36.70
2023-03-16T18:40:19.643Z,36.79
2023-03-16T18:42:46.745Z,37.81
2023-03-16T18:45:16.681Z,37.95
2023-03-16T18:47:54.554Z,37.59
2023-03-16T18:50:29.843Z,37.66
2023-03-16T18:53:00.724Z,38.55
2023-03-16T18:55:31.181Z,37.74
2023-03-16T18:57:58.814Z,37.55
2023-03-16T19:00:27.419Z,38.00
2023-03-16T19:03:02.436Z,38.46
2023-03-16T19:05:39.674Z,38.50
2023-03-16T19:08:06.954Z,39.12
2023-03-16T19:10:37.455Z,38.82
2023-03-16T19:13:11.209Z,39.93
2023-03-16T19:15:39.440Z,40.18
2023-03-16T19:18:06.419Z,40.35
2023-03-16T19:20:34.878Z,40.42
2023-03-16T19:23:08.290Z,39.80
2023-03-16T19:25:41.349Z,39.83
2023-03-16T19:28:14.919Z,40.72
2023-03-16T19:30:42.095Z,40.38
2023-03-16T19:33:19.865Z,41.22
2023-03-16T19:35:51.900Z,41.54
2023-03-16T19:38:20.038Z,41.62
2023-03-16T19:40:52.108Z,41.71
2023-03-16T19:43:20.640Z,41.12
2023-03-16T19:45:48.817Z,41.45
2023-03-16T19:48:22.808Z,41.00
2023-03-16T19:50:51.209Z,41.64
2023-03-16T19:53:20.932Z,41.45
2023-03-16T19:55:49.632Z,42.09
2023-03-16T19:58:28.853Z,42.04
2023-03-16T20:00:56.710Z,42.95
2023-03-16T20:03:23.584Z,42.97
2023-03-16T20:05:50.444Z,42.63
2023-03-16T20:08:28.727Z,43.03
2023-03-16T20:11:02.284Z,42.55
2023-03-16T20:13:31.490Z,42.02
2023-03-16T20:15:58.466Z,41.93
2023-03-16T20:18:25.575Z,42.42
2023-03-16T20:20:52.404Z,43.08
2023-03-16T20:23:27.110Z,43.13
2023-03-16T20:25:56.868Z,42.71
2023-03-16T20:28:27.879Z,42.14
2023-03-16T20:30:54.849Z,42.55
2023-03-16T20:33:24.481Z,41.75
2023-03-16T20:35:55.306Z,43.29
2023-03-16T20:38:25.427Z,44.76
2023-03-16T20:40:54.047Z,44.11
2023-03-16T20:43:30.349Z,43.84
2023-03-16T20:46:03.950Z,44.96
2023-03-16T20:48:32.287Z,45.77
2023-03-16T20:51:00.681Z,47.28
2023-03-16T20:53:27.728Z,47.46
2023-03-16T20:55:55.320Z,47.88
2023-03-16T20:58:28.096Z,48.56
2023-03-16T21:00:57.890Z,49.23
2023-03-16T21:03:28.625Z,49.49
2023-03-16T21:05:59.617Z,49.74
2023-03-16T21:08:27.285Z,49.18
2023-03-16T21:10:56.424Z,49.56
2023-03-16T21:13:28.050Z,49.86
2023-03-16T21:15:56.442Z,49.78
2023-03-16T21:18:23.794Z,49.22
2023-03-16T21:20:51.416Z,46.39
2023-03-16T21:23:21.281Z,48.34
2023-03-16T21:25:59.806Z,49.70
2023-03-16T21:28:29.692Z,50.61
2023-03-16T21:30:58.259Z,50.71
2023-03-16T21:33:37.382Z,51.39
2023-03-16T21:36:16.887Z,52.27
2023-03-16T21:38:44.906Z,53.23
2023-03-16T21:41:12.082Z,54.01
2023-03-16T21:43:39.742Z,54.26
2023-03-16T21:46:18.048Z,54.90
2023-03-16T21:48:57.499Z,55.52
2023-03-16T21:51:31.533Z,52.53
2023-03-16T21:53:59.046Z,51.84
2023-03-16T21:56:26.412Z,50.98
2023-03-16T21:58:54.212Z,51.32
2023-03-16T22:01:29.899Z,51.28
2023-03-16T22:04:11.022Z,51.88
2023-03-16T22:06:37.858Z,52.77
2023-03-16T22:09:04.662Z,53.06
2023-03-16T22:11:32.231Z,53.90
2023-03-16T22:13:59.626Z,54.02
2023-03-16T22:16:28.913Z,54.86
2023-03-16T22:18:58.345Z,55.91
2023-03-16T22:21:27.661Z,57.65
2023-03-16T22:23:56.439Z,57.65
2023-03-16T22:26:24.393Z,56.10
2023-03-16T22:28:52.567Z,56.90
2023-03-16T22:31:34.861Z,56.34
2023-03-16T22:34:03.594Z,56.26
2023-03-16T22:36:32.410Z,55.44
2023-03-16T22:39:08.313Z,55.70
2023-03-16T22:41:35.312Z,55.89
2023-03-16T22:44:04.205Z,57.46
2023-03-16T22:46:31.578Z,58.74
2023-03-16T22:48:58.689Z,58.37
2023-03-16T22:51:35.925Z,59.46
2023-03-16T22:54:08.730Z,60.63
2023-03-16T22:56:36.276Z,64.32
2023-03-16T22:59:06.186Z,62.82
2023-03-16T23:01:42.653Z,63.92
2023-03-16T23:04:32.866Z,63.79
2023-03-16T23:06:59.839Z,64.48
2023-03-16T23:09:26.774Z,62.76
2023-03-16T23:11:56.132Z,62.13
2023-03-16T23:14:25.975Z,63.92
2023-03-16T23:16:53.591Z,63.47
2023-03-16T23:19:29.939Z,65.10
2023-03-16T23:22:01.977Z,60.05
2023-03-16T23:24:28.866Z,58.43
2023-03-16T23:26:56.251Z,60.16
2023-03-16T23:29:24.396Z,57.95
2023-03-16T23:31:51.457Z,59.75
2023-03-16T23:34:21.488Z,61.79
2023-03-16T23:36:49.935Z,62.63
2023-03-16T23:39:16.888Z,64.84
2023-03-16T23:41:46.824Z,67.77
2023-03-16T23:44:23.576Z,70.68
2023-03-16T23:46:51.109Z,74.45
2023-03-16T23:49:22.445Z,76.27
2023-03-16T23:51:51.101Z,78.56
2023-03-16T23:54:24.619Z,81.81
2023-03-16T23:56:52.107Z,84.85
2023-03-16T23:59:20.430Z,86.79
